Nearby METAR Reports

 

KSNK - Snyder/Winston, Texas, USA
Distance from station: SSE 25mi, 41km
Updated: Thu, 25-Apr-2024 2:55am CDT
Clear
Clear
 Wind from S
Wind: S 13 mph , 20 km/h, Gust: 18 mph , 30 km/h
Temperature: 72°F , 22°C
Dew Point: 61°F , 16°C
Humidity: 69%
Barometer: 29.94 inHg , 1013.9 hPa
Clouds: Clear
Visibility: 10 miles , 16 km
2024/04/25 07:55 KSNK 250755Z AUTO 17011G16KT 10SM CLR 22/16 A2994 RMK AO2 T02210161
KSWW - Sweetwater, Texas, USA
Distance from station: SE 56mi, 90km
Updated: Thu, 25-Apr-2024 2:55am CDT

 Wind from S
Wind: S 16 mph , 26 km/h
Temperature: 70°F , 21°C
Dew Point: 64°F , 18°C
Humidity: 83%
Barometer: 29.97 inHg , 1014.9 hPa
Visibility: 10 miles , 16 km
2024/04/25 07:55 KSWW 250755Z AUTO 17014KT 10SM 21/18 A2997 RMK AO2 T02110180
 
KLBB - Lubbock, Texas, USA
Distance from station: NW 59mi, 94km
Updated: Thu, 25-Apr-2024 2:53am CDT
Overcast
Overcast
 Wind from SSE
Wind: SSE 12 mph , 19 km/h
Temperature: 66°F , 19°C
Dew Point: 63°F , 17°C
Humidity: 88%
Barometer: 29.93 inHg , 1013.5 hPa
Clouds: Overcast
Visibility: 10 miles , 16 km
Cloud details: Mostly cloudy 18000 ft
Overcast 21000 ft
2024/04/25 07:53 KLBB 250753Z 15010KT 10SM BKN180 OVC210 19/17 A2993 RMK AO2 SLP092 T01890167
KPVW - Plainview, Texas, USA
Distance from station: NNW 85mi, 137km
Updated: Thu, 25-Apr-2024 2:50am CDT
Clear
Clear
 Wind from SSE
Wind: SSE 6 mph , 9 km/h
Temperature: 63°F , 17°C
Dew Point: 61°F , 16°C
Humidity: 94%
Barometer: 29.94 inHg , 1013.9 hPa
Clouds: Clear
Visibility: 10 miles , 16 km
2024/04/25 07:50 KPVW 250750Z AUTO 16005KT 10SM CLR 17/16 A2994 RMK AO2 T01650156
 
KDYS - Dyess Afb/Abilen, Texas, USA
Distance from station: ESE 88mi, 141km
Updated: Thu, 25-Apr-2024 2:55am CDT
Overcast
Overcast
 Wind from SE
Wind: SE 16 mph , 26 km/h
Temperature: 72°F , 22°C
Dew Point: 64°F , 18°C
Humidity: 78%
Barometer: 29.91 inHg , 1012.9 hPa
Clouds: Overcast
Visibility: 10 miles , 16 km
Cloud details: Overcast 4300 ft
2024/04/25 07:55 KDYS 250755Z AUTO 14014KT 10SM OVC043 22/18 A2991 RMK AO2 SLP088 T02170183 $
KGNC - Seminole, Texas, USA
Distance from station: WSW 89mi, 144km
Updated: Thu, 25-Apr-2024 2:55am CDT
Clear
Clear
 Wind from SSE
Wind: SSE 10 mph , 17 km/h
Temperature: 72°F , 22°C
Dew Point: 61°F , 16°C
Humidity: 69%
Barometer: 29.98 inHg , 1015.2 hPa
Clouds: Clear
Visibility: 10 miles , 16 km
2024/04/25 07:55 KGNC 250755Z AUTO 16009KT 10SM CLR 22/16 A2998 RMK AO2 T02150163
 
KE11 - Andrews, Texas, USA
Distance from station: WSW 93mi, 149km
Updated: Thu, 25-Apr-2024 2:55am CDT
Clear
Clear
 Wind from S
Wind: S 13 mph , 20 km/h, Gust: 21 mph , 33 km/h
Temperature: 70°F , 21°C
Dew Point: 61°F , 16°C
Humidity: 73%
Barometer: 29.94 inHg , 1013.9 hPa
Clouds: Clear
Visibility: 10 miles , 16 km
2024/04/25 07:55 KE11 250755Z AUTO 17011G18KT 10SM CLR 21/16 A2994 RMK AO2 T02130157
KABI - Abilene, Texas, USA
Distance from station: ESE 96mi, 154km
Updated: Thu, 25-Apr-2024 2:52am CDT
Overcast
Overcast
 Wind from SSE
Wind: SSE 13 mph , 20 km/h
Temperature: 72°F , 22°C
Dew Point: 66°F , 19°C
Humidity: 83%
Barometer: 29.96 inHg , 1014.6 hPa
Clouds: Overcast
Visibility: 10 miles , 16 km
Cloud details: Overcast 4200 ft
2024/04/25 07:52 KABI 250752Z 15011KT 10SM OVC042 22/19 A2996 RMK AO2 SLP122 T02170189 $
 
KMAF - Midland, Texas, USA
Distance from station: SW 96mi, 154km
Updated: Thu, 25-Apr-2024 2:53am CDT
Clear
Clear
 Wind from S
Wind: S 17 mph , 28 km/h
Temperature: 72°F , 22°C
Dew Point: 61°F , 16°C
Humidity: 69%
Barometer: 29.93 inHg , 1013.5 hPa
Clouds: Clear
Visibility: 10 miles , 16 km
2024/04/25 07:53 KMAF 250753Z AUTO 17015KT 10SM CLR 22/16 A2993 RMK AO2 SLP087 T02170161
KCDS - Childress, Texas, USA
Distance from station: NNE 110mi, 177km
Updated: Thu, 25-Apr-2024 2:53am CDT
Overcast
Overcast
 Wind from SSE
Wind: SSE 14 mph , 22 km/h, Gust: 23 mph , 37 km/h
Temperature: 70°F , 21°C
Dew Point: 64°F , 18°C
Humidity: 83%
Barometer: 29.91 inHg , 1012.9 hPa
Clouds: Overcast
Visibility: 10 miles , 16 km
Cloud details: Overcast 1900 ft
2024/04/25 07:53 KCDS 250753Z AUTO 15012G20KT 10SM OVC019 21/18 A2991 RMK AO2 SLP111 T02060183
 
KSJT - San Angelo, Texas, USA
Distance from station: SSE 121mi, 194km
Updated: Thu, 25-Apr-2024 2:51am CDT
Mostly cloudy
Mostly cloudy
 Wind from SSE
Wind: SSE 10 mph , 17 km/h
Temperature: 73°F , 23°C
Dew Point: 64°F , 18°C
Humidity: 74%
Barometer: 29.95 inHg , 1014.2 hPa
Clouds: Mostly cloudy
Visibility: 10 miles , 16 km
Cloud details: Mostly cloudy 2600 ft
Mostly cloudy 3200 ft
2024/04/25 07:51 KSJT 250751Z AUTO 16009KT 10SM BKN026 BKN032 23/18 A2995 RMK AO2 SLP115 T02330183
KHOB - Hobbs/Lea Co., New Mexico, USA
Distance from station: WSW 122mi, 196km
Updated: Thu, 25-Apr-2024 2:55am CDT
Clear
Clear
 Wind from SSE
Wind: SSE 15 mph , 24 km/h, Gust: 22 mph , 35 km/h
Temperature: 70°F , 21°C
Dew Point: 61°F , 16°C
Humidity: 73%
Barometer: 29.94 inHg , 1013.9 hPa
Clouds: Clear
Visibility: 10 miles , 16 km
2024/04/25 07:55 KHOB 250755Z AUTO 16013G19KT 10SM CLR 21/16 A2994 RMK AO2
 
KCOM - Coleman Muni, Texas, USA
Distance from station: SE 131mi, 212km
Updated: Thu, 25-Apr-2024 2:55am CDT
Overcast
Overcast
 Wind from SSE
Wind: SSE 12 mph , 19 km/h
Temperature: 72°F , 22°C
Dew Point: 64°F , 18°C
Humidity: 78%
Barometer: 29.98 inHg , 1015.2 hPa
Clouds: Overcast
Visibility: 10 miles , 16 km
Cloud details: Partly cloudy 2100 ft
Partly cloudy 3000 ft
Overcast 3700 ft
2024/04/25 07:55 KCOM 250755Z AUTO 15010KT 10SM SCT021 SCT030 OVC037 22/18 A2998 RMK AO2 T02180180
KBKD - Breckenridge, Texas, USA
Distance from station: E 134mi, 215km
Updated: Thu, 25-Apr-2024 2:55am CDT
Haze, Overcast
Haze, Overcast
 
Temperature: 73°F , 23°C
Dew Point: 66°F , 19°C
Humidity: 78%
Barometer: 29.97 inHg , 1014.9 hPa
Summary: Haze
Clouds: Overcast
Visibility: 5 miles , 8 km
Cloud details: Overcast 5000 ft
2024/04/25 07:55 KBKD 250755Z AUTO 5SM HZ OVC050 23/19 A2997 RMK AO2 T02270192
 
KF05 - Vernon Wilbarger, Texas, USA
Distance from station: NE 137mi, 220km
Updated: Thu, 25-Apr-2024 2:55am CDT
Mostly cloudy
Mostly cloudy
 Wind from SSE
Wind: SSE 14 mph , 22 km/h
Temperature: 72°F , 22°C
Dew Point: 68°F , 20°C
Humidity: 88%
Barometer: 29.94 inHg , 1013.9 hPa
Clouds: Mostly cloudy
Visibility: 10 miles , 16 km
Cloud details: Partly cloudy 2100 ft
Mostly cloudy 5500 ft
2024/04/25 07:55 KF05 250755Z AUTO 15012KT 10SM SCT021 BKN055 22/20 A2994 RMK AO2 T02210200